sensor_id;sensor_type;location;lat;lon;timestamp;P1;durP1;ratioP1;P2;durP2;ratioP2
2686;SDS011;1353;51.386;7.028;2022-07-06T00:01:16;2.67;;;1.90;;
2686;SDS011;1353;51.386;7.028;2022-07-06T00:03:43;2.60;;;2.40;;
2686;SDS011;1353;51.386;7.028;2022-07-06T00:06:10;3.60;;;2.40;;
2686;SDS011;1353;51.386;7.028;2022-07-06T00:08:38;2.80;;;2.33;;
2686;SDS011;1353;51.386;7.028;2022-07-06T00:11:05;2.70;;;2.50;;
2686;SDS011;1353;51.386;7.028;2022-07-06T00:13:32;2.93;;;2.73;;
2686;SDS011;1353;51.386;7.028;2022-07-06T00:15:59;5.27;;;2.53;;
2686;SDS011;1353;51.386;7.028;2022-07-06T00:18:26;3.77;;;3.03;;
2686;SDS011;1353;51.386;7.028;2022-07-06T00:20:52;3.30;;;2.83;;
2686;SDS011;1353;51.386;7.028;2022-07-06T00:23:19;2.50;;;2.30;;
2686;SDS011;1353;51.386;7.028;2022-07-06T00:25:47;4.83;;;2.80;;
2686;SDS011;1353;51.386;7.028;2022-07-06T00:28:14;3.00;;;2.73;;
2686;SDS011;1353;51.386;7.028;2022-07-06T00:30:41;4.13;;;2.93;;
2686;SDS011;1353;51.386;7.028;2022-07-06T00:33:08;5.20;;;3.47;;
2686;SDS011;1353;51.386;7.028;2022-07-06T00:35:35;4.40;;;2.30;;
2686;SDS011;1353;51.386;7.028;2022-07-06T00:38:02;5.50;;;3.23;;
2686;SDS011;1353;51.386;7.028;2022-07-06T00:40:28;3.93;;;2.27;;
2686;SDS011;1353;51.386;7.028;2022-07-06T00:42:57;3.73;;;2.93;;
2686;SDS011;1353;51.386;7.028;2022-07-06T00:45:23;6.13;;;2.67;;
2686;SDS011;1353;51.386;7.028;2022-07-06T00:47:51;4.10;;;2.50;;
2686;SDS011;1353;51.386;7.028;2022-07-06T00:50:18;2.20;;;2.00;;
2686;SDS011;1353;51.386;7.028;2022-07-06T00:52:47;4.23;;;2.50;;
2686;SDS011;1353;51.386;7.028;2022-07-06T00:55:16;3.20;;;2.43;;
2686;SDS011;1353;51.386;7.028;2022-07-06T00:57:44;2.60;;;2.40;;
2686;SDS011;1353;51.386;7.028;2022-07-06T01:00:13;4.83;;;2.73;;
2686;SDS011;1353;51.386;7.028;2022-07-06T01:02:42;4.17;;;2.50;;
2686;SDS011;1353;51.386;7.028;2022-07-06T01:05:09;3.23;;;2.57;;
2686;SDS011;1353;51.386;7.028;2022-07-06T01:07:38;5.23;;;2.90;;
2686;SDS011;1353;51.386;7.028;2022-07-06T01:10:06;3.50;;;2.47;;
2686;SDS011;1353;51.386;7.028;2022-07-06T01:12:35;2.13;;;1.90;;
2686;SDS011;1353;51.386;7.028;2022-07-06T01:15:02;3.30;;;2.87;;
2686;SDS011;1353;51.386;7.028;2022-07-06T01:17:31;3.07;;;2.40;;
2686;SDS011;1353;51.386;7.028;2022-07-06T01:20:06;4.40;;;2.17;;
2686;SDS011;1353;51.386;7.028;2022-07-06T01:22:34;3.60;;;2.10;;
2686;SDS011;1353;51.386;7.028;2022-07-06T01:25:01;3.20;;;2.20;;
2686;SDS011;1353;51.386;7.028;2022-07-06T01:27:28;2.17;;;2.00;;
2686;SDS011;1353;51.386;7.028;2022-07-06T01:29:54;2.37;;;1.60;;
2686;SDS011;1353;51.386;7.028;2022-07-06T01:32:21;2.27;;;2.07;;
2686;SDS011;1353;51.386;7.028;2022-07-06T01:34:48;3.60;;;1.93;;
2686;SDS011;1353;51.386;7.028;2022-07-06T01:37:16;2.43;;;1.90;;
2686;SDS011;1353;51.386;7.028;2022-07-06T01:39:43;2.70;;;1.90;;
2686;SDS011;1353;51.386;7.028;2022-07-06T01:42:09;2.13;;;2.00;;
2686;SDS011;1353;51.386;7.028;2022-07-06T01:44:36;1.97;;;1.87;;
2686;SDS011;1353;51.386;7.028;2022-07-06T01:47:03;3.17;;;2.30;;
2686;SDS011;1353;51.386;7.028;2022-07-06T01:49:30;3.47;;;2.20;;
2686;SDS011;1353;51.386;7.028;2022-07-06T01:51:56;2.10;;;2.00;;
2686;SDS011;1353;51.386;7.028;2022-07-06T01:54:24;2.63;;;2.10;;
2686;SDS011;1353;51.386;7.028;2022-07-06T01:56:51;5.33;;;2.63;;
2686;SDS011;1353;51.386;7.028;2022-07-06T01:59:18;5.43;;;2.73;;
2686;SDS011;1353;51.386;7.028;2022-07-06T02:01:44;2.70;;;2.50;;
2686;SDS011;1353;51.386;7.028;2022-07-06T02:04:11;3.20;;;2.20;;
2686;SDS011;1353;51.386;7.028;2022-07-06T02:06:38;3.43;;;3.10;;
2686;SDS011;1353;51.386;7.028;2022-07-06T02:09:05;2.97;;;2.77;;
2686;SDS011;1353;51.386;7.028;2022-07-06T02:11:33;10.00;;;2.50;;
2686;SDS011;1353;51.386;7.028;2022-07-06T02:13:59;7.70;;;3.60;;
2686;SDS011;1353;51.386;7.028;2022-07-06T02:16:26;9.30;;;3.90;;
2686;SDS011;1353;51.386;7.028;2022-07-06T02:18:53;8.60;;;4.37;;
2686;SDS011;1353;51.386;7.028;2022-07-06T02:21:20;4.77;;;3.90;;
2686;SDS011;1353;51.386;7.028;2022-07-06T02:23:46;9.10;;;4.63;;
2686;SDS011;1353;51.386;7.028;2022-07-06T02:26:13;4.87;;;4.37;;
2686;SDS011;1353;51.386;7.028;2022-07-06T02:28:41;6.37;;;4.90;;
2686;SDS011;1353;51.386;7.028;2022-07-06T02:31:08;7.57;;;4.80;;
2686;SDS011;1353;51.386;7.028;2022-07-06T02:33:38;9.53;;;5.10;;
2686;SDS011;1353;51.386;7.028;2022-07-06T02:36:05;8.20;;;5.57;;
2686;SDS011;1353;51.386;7.028;2022-07-06T02:38:32;8.13;;;5.30;;
2686;SDS011;1353;51.386;7.028;2022-07-06T02:40:59;9.97;;;5.43;;
2686;SDS011;1353;51.386;7.028;2022-07-06T02:43:25;8.10;;;4.70;;
2686;SDS011;1353;51.386;7.028;2022-07-06T02:45:53;6.50;;;5.27;;
2686;SDS011;1353;51.386;7.028;2022-07-06T02:48:20;7.53;;;4.83;;
2686;SDS011;1353;51.386;7.028;2022-07-06T02:50:47;9.37;;;5.30;;
2686;SDS011;1353;51.386;7.028;2022-07-06T02:53:14;9.67;;;5.10;;
2686;SDS011;1353;51.386;7.028;2022-07-06T02:55:41;6.47;;;4.67;;
2686;SDS011;1353;51.386;7.028;2022-07-06T02:58:07;8.73;;;5.63;;
2686;SDS011;1353;51.386;7.028;2022-07-06T03:00:34;10.53;;;6.30;;
2686;SDS011;1353;51.386;7.028;2022-07-06T03:03:02;8.03;;;5.10;;
2686;SDS011;1353;51.386;7.028;2022-07-06T03:05:29;8.30;;;5.60;;
2686;SDS011;1353;51.386;7.028;2022-07-06T03:07:56;7.70;;;5.53;;
2686;SDS011;1353;51.386;7.028;2022-07-06T03:10:22;10.37;;;5.70;;
2686;SDS011;1353;51.386;7.028;2022-07-06T03:12:49;6.13;;;5.33;;
2686;SDS011;1353;51.386;7.028;2022-07-06T03:15:16;9.90;;;5.87;;
2686;SDS011;1353;51.386;7.028;2022-07-06T03:17:43;13.03;;;5.23;;
2686;SDS011;1353;51.386;7.028;2022-07-06T03:20:11;9.60;;;5.07;;
2686;SDS011;1353;51.386;7.028;2022-07-06T03:22:39;10.33;;;5.67;;
2686;SDS011;1353;51.386;7.028;2022-07-06T03:25:05;12.57;;;5.63;;
2686;SDS011;1353;51.386;7.028;2022-07-06T03:27:32;7.47;;;5.43;;
2686;SDS011;1353;51.386;7.028;2022-07-06T03:30:01;7.53;;;5.23;;
2686;SDS011;1353;51.386;7.028;2022-07-06T03:32:27;14.47;;;5.93;;
2686;SDS011;1353;51.386;7.028;2022-07-06T03:34:56;7.63;;;4.60;;
2686;SDS011;1353;51.386;7.028;2022-07-06T03:37:24;9.13;;;5.83;;
2686;SDS011;1353;51.386;7.028;2022-07-06T03:39:51;6.20;;;4.90;;
2686;SDS011;1353;51.386;7.028;2022-07-06T03:42:18;7.00;;;5.17;;
2686;SDS011;1353;51.386;7.028;2022-07-06T03:44:45;7.70;;;4.87;;
2686;SDS011;1353;51.386;7.028;2022-07-06T03:47:11;5.27;;;4.77;;
2686;SDS011;1353;51.386;7.028;2022-07-06T03:49:38;11.60;;;5.47;;
2686;SDS011;1353;51.386;7.028;2022-07-06T03:52:05;6.67;;;4.10;;
2686;SDS011;1353;51.386;7.028;2022-07-06T03:54:33;5.20;;;4.47;;
2686;SDS011;1353;51.386;7.028;2022-07-06T03:57:00;10.90;;;4.10;;
2686;SDS011;1353;51.386;7.028;2022-07-06T03:59:27;9.93;;;4.20;;
2686;SDS011;1353;51.386;7.028;2022-07-06T04:01:53;7.30;;;4.30;;
2686;SDS011;1353;51.386;7.028;2022-07-06T04:04:20;10.57;;;4.47;;
2686;SDS011;1353;51.386;7.028;2022-07-06T04:06:47;4.20;;;3.20;;
2686;SDS011;1353;51.386;7.028;2022-07-06T04:09:14;7.00;;;4.27;;
2686;SDS011;1353;51.386;7.028;2022-07-06T04:11:42;6.83;;;4.50;;
2686;SDS011;1353;51.386;7.028;2022-07-06T04:14:08;6.63;;;4.00;;
2686;SDS011;1353;51.386;7.028;2022-07-06T04:16:35;6.10;;;3.43;;
2686;SDS011;1353;51.386;7.028;2022-07-06T04:19:02;5.20;;;3.77;;
2686;SDS011;1353;51.386;7.028;2022-07-06T04:21:29;4.60;;;4.20;;
2686;SDS011;1353;51.386;7.028;2022-07-06T04:23:55;8.10;;;3.90;;
2686;SDS011;1353;51.386;7.028;2022-07-06T04:26:22;7.90;;;5.40;;
2686;SDS011;1353;51.386;7.028;2022-07-06T04:28:50;9.43;;;4.03;;
2686;SDS011;1353;51.386;7.028;2022-07-06T04:31:17;5.43;;;3.90;;
2686;SDS011;1353;51.386;7.028;2022-07-06T04:33:44;6.07;;;4.23;;
2686;SDS011;1353;51.386;7.028;2022-07-06T04:36:10;7.57;;;4.10;;
2686;SDS011;1353;51.386;7.028;2022-07-06T04:38:37;6.57;;;3.43;;
2686;SDS011;1353;51.386;7.028;2022-07-06T04:41:04;4.60;;;3.67;;
2686;SDS011;1353;51.386;7.028;2022-07-06T04:43:30;7.23;;;4.33;;
2686;SDS011;1353;51.386;7.028;2022-07-06T04:45:59;4.30;;;3.87;;
2686;SDS011;1353;51.386;7.028;2022-07-06T04:48:26;4.73;;;3.60;;
2686;SDS011;1353;51.386;7.028;2022-07-06T04:50:53;5.47;;;4.43;;
2686;SDS011;1353;51.386;7.028;2022-07-06T04:53:20;7.20;;;3.60;;
2686;SDS011;1353;51.386;7.028;2022-07-06T04:55:47;6.10;;;4.13;;
2686;SDS011;1353;51.386;7.028;2022-07-06T04:58:13;5.73;;;4.70;;
2686;SDS011;1353;51.386;7.028;2022-07-06T05:00:40;5.47;;;4.20;;
2686;SDS011;1353;51.386;7.028;2022-07-06T05:03:08;4.30;;;3.80;;
2686;SDS011;1353;51.386;7.028;2022-07-06T05:05:35;6.00;;;4.30;;
2686;SDS011;1353;51.386;7.028;2022-07-06T05:08:02;5.00;;;4.50;;
2686;SDS011;1353;51.386;7.028;2022-07-06T05:10:29;6.73;;;4.50;;
2686;SDS011;1353;51.386;7.028;2022-07-06T05:12:56;9.83;;;4.20;;
2686;SDS011;1353;51.386;7.028;2022-07-06T05:15:23;4.03;;;3.57;;
2686;SDS011;1353;51.386;7.028;2022-07-06T05:17:50;7.00;;;3.87;;
2686;SDS011;1353;51.386;7.028;2022-07-06T05:20:18;6.20;;;3.70;;
2686;SDS011;1353;51.386;7.028;2022-07-06T05:22:45;3.77;;;3.47;;
2686;SDS011;1353;51.386;7.028;2022-07-06T05:25:11;6.20;;;3.20;;
2686;SDS011;1353;51.386;7.028;2022-07-06T05:27:38;6.37;;;4.07;;
2686;SDS011;1353;51.386;7.028;2022-07-06T05:30:05;4.33;;;3.50;;
2686;SDS011;1353;51.386;7.028;2022-07-06T05:32:33;4.87;;;3.50;;
2686;SDS011;1353;51.386;7.028;2022-07-06T05:34:59;7.40;;;4.67;;
2686;SDS011;1353;51.386;7.028;2022-07-06T05:37:28;6.60;;;4.03;;
2686;SDS011;1353;51.386;7.028;2022-07-06T05:39:54;5.33;;;3.50;;
2686;SDS011;1353;51.386;7.028;2022-07-06T05:42:21;5.20;;;3.60;;
2686;SDS011;1353;51.386;7.028;2022-07-06T05:44:48;7.87;;;3.60;;
2686;SDS011;1353;51.386;7.028;2022-07-06T05:47:14;4.60;;;3.67;;
2686;SDS011;1353;51.386;7.028;2022-07-06T05:49:59;4.87;;;3.30;;
2686;SDS011;1353;51.386;7.028;2022-07-06T05:52:39;4.63;;;2.97;;
2686;SDS011;1353;51.386;7.028;2022-07-06T05:55:07;4.17;;;3.47;;
2686;SDS011;1353;51.386;7.028;2022-07-06T05:57:34;3.57;;;3.27;;
2686;SDS011;1353;51.386;7.028;2022-07-06T06:00:01;6.13;;;3.90;;
2686;SDS011;1353;51.386;7.028;2022-07-06T06:02:35;6.50;;;3.40;;
2686;SDS011;1353;51.386;7.028;2022-07-06T06:05:04;7.37;;;3.00;;
2686;SDS011;1353;51.386;7.028;2022-07-06T06:07:32;4.37;;;3.17;;
2686;SDS011;1353;51.386;7.028;2022-07-06T06:10:01;4.77;;;3.47;;
2686;SDS011;1353;51.386;7.028;2022-07-06T06:12:28;7.60;;;3.30;;
2686;SDS011;1353;51.386;7.028;2022-07-06T06:14:55;4.63;;;3.83;;
2686;SDS011;1353;51.386;7.028;2022-07-06T06:17:22;8.63;;;3.47;;
2686;SDS011;1353;51.386;7.028;2022-07-06T06:19:48;4.60;;;3.27;;
2686;SDS011;1353;51.386;7.028;2022-07-06T06:22:15;4.23;;;3.60;;
2686;SDS011;1353;51.386;7.028;2022-07-06T06:24:42;6.47;;;2.80;;
2686;SDS011;1353;51.386;7.028;2022-07-06T06:27:10;4.87;;;2.20;;
2686;SDS011;1353;51.386;7.028;2022-07-06T06:29:37;8.43;;;2.87;;
2686;SDS011;1353;51.386;7.028;2022-07-06T06:32:04;5.30;;;2.93;;
2686;SDS011;1353;51.386;7.028;2022-07-06T06:34:31;3.23;;;1.90;;
2686;SDS011;1353;51.386;7.028;2022-07-06T06:36:58;6.60;;;2.20;;
2686;SDS011;1353;51.386;7.028;2022-07-06T06:39:25;3.50;;;1.90;;
2686;SDS011;1353;51.386;7.028;2022-07-06T06:41:52;2.43;;;1.37;;
2686;SDS011;1353;51.386;7.028;2022-07-06T06:44:20;1.40;;;1.30;;
2686;SDS011;1353;51.386;7.028;2022-07-06T06:46:48;6.87;;;1.60;;
2686;SDS011;1353;51.386;7.028;2022-07-06T06:49:15;4.03;;;1.50;;
2686;SDS011;1353;51.386;7.028;2022-07-06T06:51:42;2.43;;;1.40;;
2686;SDS011;1353;51.386;7.028;2022-07-06T06:54:08;1.57;;;1.17;;
2686;SDS011;1353;51.386;7.028;2022-07-06T06:56:35;1.93;;;0.93;;
2686;SDS011;1353;51.386;7.028;2022-07-06T06:59:02;2.20;;;1.17;;
2686;SDS011;1353;51.386;7.028;2022-07-06T07:01:30;2.77;;;1.23;;
2686;SDS011;1353;51.386;7.028;2022-07-06T07:03:57;2.70;;;1.40;;
2686;SDS011;1353;51.386;7.028;2022-07-06T07:06:24;2.10;;;1.40;;
2686;SDS011;1353;51.386;7.028;2022-07-06T07:08:51;2.00;;;1.40;;
2686;SDS011;1353;51.386;7.028;2022-07-06T07:11:18;2.40;;;1.50;;
2686;SDS011;1353;51.386;7.028;2022-07-06T07:13:44;1.30;;;1.10;;
2686;SDS011;1353;51.386;7.028;2022-07-06T07:16:11;1.40;;;1.30;;
2686;SDS011;1353;51.386;7.028;2022-07-06T07:18:39;4.07;;;2.67;;
2686;SDS011;1353;51.386;7.028;2022-07-06T07:21:06;3.70;;;2.20;;
2686;SDS011;1353;51.386;7.028;2022-07-06T07:23:33;7.60;;;2.83;;
2686;SDS011;1353;51.386;7.028;2022-07-06T07:25:59;6.30;;;3.07;;
2686;SDS011;1353;51.386;7.028;2022-07-06T07:28:26;5.20;;;2.73;;
2686;SDS011;1353;51.386;7.028;2022-07-06T07:30:53;7.90;;;4.47;;
2686;SDS011;1353;51.386;7.028;2022-07-06T07:33:20;6.97;;;4.27;;
2686;SDS011;1353;51.386;7.028;2022-07-06T07:35:48;5.40;;;3.57;;
2686;SDS011;1353;51.386;7.028;2022-07-06T07:38:14;8.53;;;3.80;;
2686;SDS011;1353;51.386;7.028;2022-07-06T07:40:41;6.83;;;3.13;;
2686;SDS011;1353;51.386;7.028;2022-07-06T07:43:08;5.37;;;2.90;;
2686;SDS011;1353;51.386;7.028;2022-07-06T07:45:35;6.20;;;2.73;;
2686;SDS011;1353;51.386;7.028;2022-07-06T07:48:02;6.07;;;2.87;;
2686;SDS011;1353;51.386;7.028;2022-07-06T07:50:29;6.03;;;3.17;;
2686;SDS011;1353;51.386;7.028;2022-07-06T07:52:57;4.63;;;2.27;;
2686;SDS011;1353;51.386;7.028;2022-07-06T07:55:23;5.13;;;2.50;;
2686;SDS011;1353;51.386;7.028;2022-07-06T07:57:50;6.30;;;2.97;;
2686;SDS011;1353;51.386;7.028;2022-07-06T08:00:17;7.60;;;3.60;;
2686;SDS011;1353;51.386;7.028;2022-07-06T08:02:46;6.40;;;3.60;;
2686;SDS011;1353;51.386;7.028;2022-07-06T08:05:13;5.20;;;2.80;;
2686;SDS011;1353;51.386;7.028;2022-07-06T08:07:40;8.53;;;3.90;;
2686;SDS011;1353;51.386;7.028;2022-07-06T08:10:09;8.03;;;3.90;;
2686;SDS011;1353;51.386;7.028;2022-07-06T08:12:36;8.20;;;4.00;;
2686;SDS011;1353;51.386;7.028;2022-07-06T08:15:04;9.40;;;5.20;;
2686;SDS011;1353;51.386;7.028;2022-07-06T08:17:31;6.33;;;4.30;;
2686;SDS011;1353;51.386;7.028;2022-07-06T08:19:58;6.13;;;3.90;;
2686;SDS011;1353;51.386;7.028;2022-07-06T08:22:25;9.10;;;3.70;;
2686;SDS011;1353;51.386;7.028;2022-07-06T08:24:52;10.53;;;4.73;;
2686;SDS011;1353;51.386;7.028;2022-07-06T08:27:20;7.13;;;3.60;;
2686;SDS011;1353;51.386;7.028;2022-07-06T08:29:47;4.80;;;3.67;;
2686;SDS011;1353;51.386;7.028;2022-07-06T08:32:13;6.27;;;3.83;;
2686;SDS011;1353;51.386;7.028;2022-07-06T08:34:40;5.40;;;3.50;;
2686;SDS011;1353;51.386;7.028;2022-07-06T08:37:09;9.17;;;3.83;;
2686;SDS011;1353;51.386;7.028;2022-07-06T08:39:36;5.40;;;3.37;;
2686;SDS011;1353;51.386;7.028;2022-07-06T08:42:03;5.97;;;2.80;;
2686;SDS011;1353;51.386;7.028;2022-07-06T08:44:31;3.67;;;2.53;;
2686;SDS011;1353;51.386;7.028;2022-07-06T08:47:01;4.90;;;2.20;;
2686;SDS011;1353;51.386;7.028;2022-07-06T08:49:31;3.33;;;2.40;;
2686;SDS011;1353;51.386;7.028;2022-07-06T08:51:59;3.03;;;1.97;;
2686;SDS011;1353;51.386;7.028;2022-07-06T08:54:28;2.70;;;2.20;;
2686;SDS011;1353;51.386;7.028;2022-07-06T08:56:55;5.67;;;2.10;;
2686;SDS011;1353;51.386;7.028;2022-07-06T08:59:22;3.83;;;2.00;;
2686;SDS011;1353;51.386;7.028;2022-07-06T09:01:51;3.50;;;2.73;;
2686;SDS011;1353;51.386;7.028;2022-07-06T09:04:18;2.53;;;2.33;;
2686;SDS011;1353;51.386;7.028;2022-07-06T09:06:47;3.30;;;3.00;;
2686;SDS011;1353;51.386;7.028;2022-07-06T09:09:17;4.40;;;3.00;;
2686;SDS011;1353;51.386;7.028;2022-07-06T09:11:46;5.10;;;2.57;;
2686;SDS011;1353;51.386;7.028;2022-07-06T09:14:13;4.50;;;2.37;;
2686;SDS011;1353;51.386;7.028;2022-07-06T09:16:40;2.90;;;2.00;;
2686;SDS011;1353;51.386;7.028;2022-07-06T09:19:09;3.47;;;2.20;;
2686;SDS011;1353;51.386;7.028;2022-07-06T09:21:38;5.37;;;2.37;;
2686;SDS011;1353;51.386;7.028;2022-07-06T09:24:07;3.23;;;1.60;;
2686;SDS011;1353;51.386;7.028;2022-07-06T09:26:36;6.13;;;2.10;;
2686;SDS011;1353;51.386;7.028;2022-07-06T09:29:03;3.60;;;1.80;;
2686;SDS011;1353;51.386;7.028;2022-07-06T09:31:30;3.33;;;1.60;;
2686;SDS011;1353;51.386;7.028;2022-07-06T09:33:58;2.70;;;1.77;;
2686;SDS011;1353;51.386;7.028;2022-07-06T09:36:41;5.87;;;1.97;;
2686;SDS011;1353;51.386;7.028;2022-07-06T09:41:55;7.80;;;2.60;;
2686;SDS011;1353;51.386;7.028;2022-07-06T09:44:23;2.20;;;1.90;;
2686;SDS011;1353;51.386;7.028;2022-07-06T09:46:51;2.57;;;2.37;;
2686;SDS011;1353;51.386;7.028;2022-07-06T09:49:19;1.20;;;1.10;;
2686;SDS011;1353;51.386;7.028;2022-07-06T09:51:48;3.00;;;1.57;;
2686;SDS011;1353;51.386;7.028;2022-07-06T09:54:16;2.73;;;1.20;;
2686;SDS011;1353;51.386;7.028;2022-07-06T09:56:44;2.43;;;1.17;;
2686;SDS011;1353;51.386;7.028;2022-07-06T09:59:17;2.13;;;1.37;;
2686;SDS011;1353;51.386;7.028;2022-07-06T10:01:46;2.27;;;1.30;;
2686;SDS011;1353;51.386;7.028;2022-07-06T10:04:16;2.17;;;1.20;;
2686;SDS011;1353;51.386;7.028;2022-07-06T10:06:45;4.40;;;1.70;;
2686;SDS011;1353;51.386;7.028;2022-07-06T10:09:14;1.47;;;1.37;;
2686;SDS011;1353;51.386;7.028;2022-07-06T10:11:42;2.53;;;1.67;;
2686;SDS011;1353;51.386;7.028;2022-07-06T10:14:14;3.53;;;1.70;;
2686;SDS011;1353;51.386;7.028;2022-07-06T10:16:43;2.63;;;1.67;;
2686;SDS011;1353;51.386;7.028;2022-07-06T10:19:12;3.17;;;1.30;;
2686;SDS011;1353;51.386;7.028;2022-07-06T10:21:40;2.00;;;1.80;;
2686;SDS011;1353;51.386;7.028;2022-07-06T10:24:09;2.50;;;1.70;;
2686;SDS011;1353;51.386;7.028;2022-07-06T10:26:37;2.87;;;2.07;;
2686;SDS011;1353;51.386;7.028;2022-07-06T10:29:05;2.20;;;1.80;;
2686;SDS011;1353;51.386;7.028;2022-07-06T10:31:32;1.23;;;1.13;;
2686;SDS011;1353;51.386;7.028;2022-07-06T10:34:02;2.37;;;1.60;;
2686;SDS011;1353;51.386;7.028;2022-07-06T10:36:31;2.13;;;1.03;;
2686;SDS011;1353;51.386;7.028;2022-07-06T10:39:02;1.13;;;0.90;;
2686;SDS011;1353;51.386;7.028;2022-07-06T10:41:51;5.57;;;1.40;;
2686;SDS011;1353;51.386;7.028;2022-07-06T10:44:18;2.77;;;1.17;;
2686;SDS011;1353;51.386;7.028;2022-07-06T10:46:49;2.70;;;1.20;;
2686;SDS011;1353;51.386;7.028;2022-07-06T10:49:18;3.43;;;1.03;;
2686;SDS011;1353;51.386;7.028;2022-07-06T10:51:45;3.70;;;1.40;;
2686;SDS011;1353;51.386;7.028;2022-07-06T10:54:14;3.27;;;1.17;;
2686;SDS011;1353;51.386;7.028;2022-07-06T10:56:42;1.10;;;1.00;;
2686;SDS011;1353;51.386;7.028;2022-07-06T10:59:12;2.93;;;0.90;;
2686;SDS011;1353;51.386;7.028;2022-07-06T11:01:39;1.30;;;0.90;;
2686;SDS011;1353;51.386;7.028;2022-07-06T11:04:08;3.10;;;1.07;;
2686;SDS011;1353;51.386;7.028;2022-07-06T11:06:36;2.93;;;1.10;;
2686;SDS011;1353;51.386;7.028;2022-07-06T11:09:05;2.07;;;1.33;;
2686;SDS011;1353;51.386;7.028;2022-07-06T11:11:41;2.63;;;1.37;;
2686;SDS011;1353;51.386;7.028;2022-07-06T11:14:12;2.03;;;1.20;;
2686;SDS011;1353;51.386;7.028;2022-07-06T11:19:27;1.23;;;1.07;;
2686;SDS011;1353;51.386;7.028;2022-07-06T11:21:55;4.40;;;1.20;;
2686;SDS011;1353;51.386;7.028;2022-07-06T11:24:25;2.00;;;1.00;;
2686;SDS011;1353;51.386;7.028;2022-07-06T11:26:54;1.10;;;0.90;;
2686;SDS011;1353;51.386;7.028;2022-07-06T11:29:24;1.53;;;1.00;;
2686;SDS011;1353;51.386;7.028;2022-07-06T11:31:52;3.03;;;1.20;;
2686;SDS011;1353;51.386;7.028;2022-07-06T11:34:20;2.17;;;1.20;;
2686;SDS011;1353;51.386;7.028;2022-07-06T11:36:48;2.00;;;0.97;;
2686;SDS011;1353;51.386;7.028;2022-07-06T11:39:15;1.83;;;1.27;;
2686;SDS011;1353;51.386;7.028;2022-07-06T11:41:41;2.27;;;1.10;;
2686;SDS011;1353;51.386;7.028;2022-07-06T11:44:08;1.10;;;0.90;;
2686;SDS011;1353;51.386;7.028;2022-07-06T11:46:37;2.03;;;0.93;;
2686;SDS011;1353;51.386;7.028;2022-07-06T11:49:04;1.73;;;0.90;;
2686;SDS011;1353;51.386;7.028;2022-07-06T11:51:32;1.10;;;0.93;;
2686;SDS011;1353;51.386;7.028;2022-07-06T11:54:01;2.47;;;1.20;;
2686;SDS011;1353;51.386;7.028;2022-07-06T11:56:33;2.07;;;1.20;;
2686;SDS011;1353;51.386;7.028;2022-07-06T11:59:01;1.40;;;1.00;;
2686;SDS011;1353;51.386;7.028;2022-07-06T12:01:28;0.93;;;0.70;;
2686;SDS011;1353;51.386;7.028;2022-07-06T12:03:58;1.37;;;0.80;;
2686;SDS011;1353;51.386;7.028;2022-07-06T12:06:26;1.63;;;0.80;;
2686;SDS011;1353;51.386;7.028;2022-07-06T12:08:54;1.43;;;0.80;;
2686;SDS011;1353;51.386;7.028;2022-07-06T12:11:22;2.87;;;0.90;;
2686;SDS011;1353;51.386;7.028;2022-07-06T12:13:51;1.13;;;0.93;;
2686;SDS011;1353;51.386;7.028;2022-07-06T12:16:19;1.30;;;0.90;;
2686;SDS011;1353;51.386;7.028;2022-07-06T12:18:48;5.13;;;1.00;;
2686;SDS011;1353;51.386;7.028;2022-07-06T12:21:18;2.70;;;0.90;;
2686;SDS011;1353;51.386;7.028;2022-07-06T12:23:47;1.90;;;1.17;;
2686;SDS011;1353;51.386;7.028;2022-07-06T12:26:16;3.77;;;1.10;;
2686;SDS011;1353;51.386;7.028;2022-07-06T12:28:44;3.33;;;1.47;;
2686;SDS011;1353;51.386;7.028;2022-07-06T12:31:30;1.47;;;0.80;;
2686;SDS011;1353;51.386;7.028;2022-07-06T12:33:57;2.30;;;1.03;;
2686;SDS011;1353;51.386;7.028;2022-07-06T12:36:26;1.70;;;0.80;;
2686;SDS011;1353;51.386;7.028;2022-07-06T12:38:53;1.83;;;0.70;;
2686;SDS011;1353;51.386;7.028;2022-07-06T12:41:26;0.70;;;0.70;;
2686;SDS011;1353;51.386;7.028;2022-07-06T12:44:03;3.40;;;1.00;;
2686;SDS011;1353;51.386;7.028;2022-07-06T12:46:32;1.50;;;0.80;;
2686;SDS011;1353;51.386;7.028;2022-07-06T12:49:01;0.90;;;0.80;;
2686;SDS011;1353;51.386;7.028;2022-07-06T12:54:31;1.13;;;1.03;;
2686;SDS011;1353;51.386;7.028;2022-07-06T12:57:09;1.53;;;0.70;;
2686;SDS011;1353;51.386;7.028;2022-07-06T12:59:39;2.13;;;1.03;;
2686;SDS011;1353;51.386;7.028;2022-07-06T13:02:08;3.17;;;1.20;;
2686;SDS011;1353;51.386;7.028;2022-07-06T13:04:42;1.40;;;1.07;;
2686;SDS011;1353;51.386;7.028;2022-07-06T13:07:17;2.60;;;1.20;;
2686;SDS011;1353;51.386;7.028;2022-07-06T13:09:46;1.40;;;0.93;;
2686;SDS011;1353;51.386;7.028;2022-07-06T13:12:13;1.93;;;1.20;;
2686;SDS011;1353;51.386;7.028;2022-07-06T13:14:40;1.97;;;0.90;;
2686;SDS011;1353;51.386;7.028;2022-07-06T13:17:06;2.33;;;1.30;;
2686;SDS011;1353;51.386;7.028;2022-07-06T13:19:34;2.17;;;1.13;;
2686;SDS011;1353;51.386;7.028;2022-07-06T13:22:00;1.80;;;0.90;;
2686;SDS011;1353;51.386;7.028;2022-07-06T13:24:27;1.63;;;0.80;;
2686;SDS011;1353;51.386;7.028;2022-07-06T13:26:55;1.10;;;0.90;;
2686;SDS011;1353;51.386;7.028;2022-07-06T13:29:22;1.93;;;0.80;;
2686;SDS011;1353;51.386;7.028;2022-07-06T13:31:49;1.10;;;0.77;;
2686;SDS011;1353;51.386;7.028;2022-07-06T13:34:16;3.47;;;0.80;;
2686;SDS011;1353;51.386;7.028;2022-07-06T13:36:43;1.40;;;0.70;;
2686;SDS011;1353;51.386;7.028;2022-07-06T13:39:10;3.33;;;0.77;;
2686;SDS011;1353;51.386;7.028;2022-07-06T13:41:38;0.90;;;0.70;;
2686;SDS011;1353;51.386;7.028;2022-07-06T13:44:06;1.67;;;0.60;;
2686;SDS011;1353;51.386;7.028;2022-07-06T13:46:34;2.03;;;0.80;;
2686;SDS011;1353;51.386;7.028;2022-07-06T13:49:02;1.60;;;1.03;;
2686;SDS011;1353;51.386;7.028;2022-07-06T13:51:29;1.37;;;0.80;;
2686;SDS011;1353;51.386;7.028;2022-07-06T13:53:57;2.03;;;0.80;;
2686;SDS011;1353;51.386;7.028;2022-07-06T13:56:24;1.60;;;0.80;;
2686;SDS011;1353;51.386;7.028;2022-07-06T13:58:52;1.83;;;0.80;;
2686;SDS011;1353;51.386;7.028;2022-07-06T14:01:20;0.90;;;0.80;;
2686;SDS011;1353;51.386;7.028;2022-07-06T14:03:47;3.87;;;1.07;;
2686;SDS011;1353;51.386;7.028;2022-07-06T14:06:14;2.93;;;1.10;;
2686;SDS011;1353;51.386;7.028;2022-07-06T14:08:41;1.67;;;1.30;;
2686;SDS011;1353;51.386;7.028;2022-07-06T14:11:08;2.00;;;1.07;;
2686;SDS011;1353;51.386;7.028;2022-07-06T14:13:36;2.40;;;1.03;;
2686;SDS011;1353;51.386;7.028;2022-07-06T14:16:03;2.83;;;1.10;;
2686;SDS011;1353;51.386;7.028;2022-07-06T14:18:32;1.83;;;0.93;;
2686;SDS011;1353;51.386;7.028;2022-07-06T14:20:59;2.10;;;1.20;;
2686;SDS011;1353;51.386;7.028;2022-07-06T14:23:26;1.90;;;0.83;;
2686;SDS011;1353;51.386;7.028;2022-07-06T14:25:54;4.23;;;0.80;;
2686;SDS011;1353;51.386;7.028;2022-07-06T14:28:21;1.20;;;0.80;;
2686;SDS011;1353;51.386;7.028;2022-07-06T14:30:48;1.10;;;1.00;;
2686;SDS011;1353;51.386;7.028;2022-07-06T14:33:15;1.23;;;1.00;;
2686;SDS011;1353;51.386;7.028;2022-07-06T14:35:46;2.30;;;1.20;;
2686;SDS011;1353;51.386;7.028;2022-07-06T14:38:14;1.80;;;0.83;;
2686;SDS011;1353;51.386;7.028;2022-07-06T14:40:41;1.63;;;0.80;;
2686;SDS011;1353;51.386;7.028;2022-07-06T14:43:09;2.63;;;0.80;;
2686;SDS011;1353;51.386;7.028;2022-07-06T14:45:36;1.00;;;0.90;;
2686;SDS011;1353;51.386;7.028;2022-07-06T14:48:03;3.00;;;0.83;;
2686;SDS011;1353;51.386;7.028;2022-07-06T14:50:31;3.17;;;0.90;;
2686;SDS011;1353;51.386;7.028;2022-07-06T14:53:01;1.00;;;0.77;;
2686;SDS011;1353;51.386;7.028;2022-07-06T14:55:29;3.03;;;0.90;;
2686;SDS011;1353;51.386;7.028;2022-07-06T14:57:56;3.63;;;0.93;;
2686;SDS011;1353;51.386;7.028;2022-07-06T15:00:23;2.20;;;0.90;;
2686;SDS011;1353;51.386;7.028;2022-07-06T15:02:50;2.50;;;1.10;;
2686;SDS011;1353;51.386;7.028;2022-07-06T15:05:17;2.00;;;1.20;;
2686;SDS011;1353;51.386;7.028;2022-07-06T15:07:44;1.57;;;1.07;;
2686;SDS011;1353;51.386;7.028;2022-07-06T15:10:12;1.20;;;0.90;;
2686;SDS011;1353;51.386;7.028;2022-07-06T15:12:38;0.83;;;0.70;;
2686;SDS011;1353;51.386;7.028;2022-07-06T15:15:05;3.50;;;1.00;;
2686;SDS011;1353;51.386;7.028;2022-07-06T15:17:33;1.33;;;0.80;;
2686;SDS011;1353;51.386;7.028;2022-07-06T15:20:00;1.10;;;1.00;;
2686;SDS011;1353;51.386;7.028;2022-07-06T15:22:26;1.40;;;1.00;;
2686;SDS011;1353;51.386;7.028;2022-07-06T15:24:53;3.00;;;1.00;;
2686;SDS011;1353;51.386;7.028;2022-07-06T15:27:21;1.13;;;0.90;;